Time;durP1;ratioP1;P1;durP2;ratioP2;P2;SDS_P1;SDS_P2;PMS_P1;PMS_P2;Temp;Humidity;BMP_temperature;BMP_pressure;BME280_temperature;BME280_humidity;BME280_pressure;Samples;Min_cycle;Max_cycle;Signal;HPM_P1;HPM_P2
2022/10/31 00:01:20;;;;;;;235.50;146.70;;;;;;;21.84;74.42;98865.63;4862288;29;20072;-63
2022/10/31 00:04:11;;;;;;;228.48;142.82;;;;;;;21.73;75.00;98866.00;4891941;29;20064;-62
2022/10/31 00:06:53;;;;;;;239.05;144.80;;;;;;;21.55;75.72;98862.78;4892663;29;20071;-62
2022/10/31 00:09:42;;;;;;;248.05;144.32;;;;;;;21.70;75.16;98876.34;4891824;29;20077;-61
2022/10/31 00:12:24;;;;;;;234.13;141.52;;;;;;;21.76;74.80;98879.88;4885135;29;20049;-61
2022/10/31 00:15:14;;;;;;;218.63;139.05;;;;;;;21.75;74.50;98877.44;4875336;29;20057;-60
2022/10/31 00:17:56;;;;;;;226.50;142.40;;;;;;;21.69;74.84;98880.19;4886399;29;20060;-59
2022/10/31 00:20:46;;;;;;;226.85;138.70;;;;;;;21.59;75.10;98873.97;4894086;29;20071;-61
2022/10/31 00:23:35;;;;;;;223.32;137.52;;;;;;;21.58;75.24;98880.56;4877281;29;20064;-61
2022/10/31 00:26:18;;;;;;;220.63;136.05;;;;;;;21.56;75.05;98878.09;4875999;29;20063;-60
2022/10/31 00:29:13;;;;;;;222.23;137.13;;;;;;;21.61;75.25;98889.00;4893739;29;20048;-60
2022/10/31 00:31:55;;;;;;;223.68;137.02;;;;;;;21.67;74.78;98887.88;4891632;29;20503;-61
2022/10/31 00:34:45;;;;;;;232.85;135.23;;;;;;;21.55;75.00;98898.28;4893501;29;20115;-60
2022/10/31 00:37:27;;;;;;;215.98;134.15;;;;;;;21.62;74.78;98901.53;4893154;29;20056;-60
2022/10/31 00:40:17;;;;;;;220.63;135.63;;;;;;;21.38;75.64;98906.00;4887971;29;20059;-60
2022/10/31 00:43:00;;;;;;;214.63;133.75;;;;;;;21.46;76.05;98908.19;4892419;29;20502;-59
2022/10/31 00:45:50;;;;;;;224.20;137.50;;;;;;;21.52;75.29;98907.06;4886083;29;20052;-60
2022/10/31 00:48:32;;;;;;;212.02;134.80;;;;;;;21.46;75.43;98902.75;4873902;29;20132;-61
2022/10/31 00:51:21;;;;;;;205.35;131.98;;;;;;;21.44;75.69;98904.94;4878051;29;20045;-60
2022/10/31 00:54:10;;;;;;;222.02;133.88;;;;;;;21.46;75.40;98908.19;4871504;29;20076;-61
2022/10/31 00:56:59;;;;;;;205.93;131.98;;;;;;;21.52;75.59;98907.06;4870813;29;20132;-60
2022/10/31 00:59:41;;;;;;;213.00;134.30;;;;;;;21.66;74.79;98908.06;4872837;29;20053;-59
2022/10/31 01:02:30;;;;;;;203.07;130.02;;;;;;;21.43;75.45;98911.44;4872578;29;20061;-60
2022/10/31 01:05:19;;;;;;;209.75;133.20;;;;;;;21.46;75.46;98903.56;4872138;29;20783;-60
2022/10/31 01:08:09;;;;;;;224.40;133.32;;;;;;;21.36;75.50;98922.66;4878702;29;20055;-62
2022/10/31 01:11:05;;;;;;;217.43;134.30;;;;;;;21.44;75.46;98908.47;4874073;29;20053;-61
2022/10/31 01:13:57;;;;;;;210.68;132.63;;;;;;;21.43;75.38;98917.72;4875165;29;20168;-61
2022/10/31 01:16:40;;;;;;;214.50;133.20;;;;;;;21.42;75.53;98923.44;4838955;29;20077;-61
2022/10/31 01:19:29;;;;;;;209.27;132.63;;;;;;;21.45;75.29;98926.47;4888135;29;20055;-61
2022/10/31 01:22:18;;;;;;;204.45;130.88;;;;;;;21.43;75.65;98928.63;4892425;29;20060;-61
2022/10/31 01:25:00;;;;;;;208.57;130.18;;;;;;;21.42;75.28;98928.91;4889160;29;20044;-60
2022/10/31 01:27:49;;;;;;;205.63;132.43;;;;;;;21.46;75.77;98935.50;4885769;29;20060;-62
2022/10/31 01:30:31;;;;;;;197.55;127.22;;;;;;;21.41;75.53;98943.69;4892046;29;20064;-62
2022/10/31 01:33:26;;;;;;;205.60;130.07;;;;;;;21.44;75.63;98943.16;4880857;28;20132;-62
2022/10/31 01:36:29;;;;;;;208.73;131.95;;;;;;;21.41;75.16;98949.94;4857017;29;20473;-61
2022/10/31 01:39:21;;;;;;;212.20;131.07;;;;;;;21.37;75.74;98954.34;4880303;29;20057;-61
2022/10/31 01:42:03;;;;;;;215.45;133.27;;;;;;;21.50;75.45;98953.75;4872751;29;20633;-62
2022/10/31 01:45:21;;;;;;;218.05;127.50;;;;;;;21.58;75.06;98960.56;4859036;29;20059;-61
2022/10/31 01:48:22;;;;;;;205.13;127.53;;;;;;;21.50;74.63;98951.03;4893516;29;20135;-61
2022/10/31 01:50:57;;;;;;;210.15;130.32;;;;;;;21.39;74.61;98951.34;4854987;29;20117;-62
2022/10/31 01:53:54;;;;;;;209.05;128.88;;;;;;;21.42;74.41;98953.50;4881171;29;20059;-61
2022/10/31 01:56:33;;;;;;;203.43;126.13;;;;;;;21.44;74.93;98965.81;4886330;29;20556;-62
2022/10/31 01:59:27;;;;;;;201.07;124.90;;;;;;;21.51;75.18;98965.50;4880275;29;20059;-61
2022/10/31 02:02:16;;;;;;;209.65;129.95;;;;;;;21.67;74.16;98969.81;4875908;29;20425;-60
2022/10/31 02:05:09;;;;;;;199.75;127.43;;;;;;;21.86;74.28;98977.38;4873772;29;20049;-62
2022/10/31 02:08:09;;;;;;;209.40;126.30;;;;;;;21.94;73.61;98974.03;4885987;29;20085;-63
2022/10/31 02:11:00;;;;;;;198.07;123.78;;;;;;;21.92;73.80;98986.31;4872448;29;20422;-62
2022/10/31 02:13:49;;;;;;;206.77;127.30;;;;;;;22.04;74.25;98986.81;4871542;29;20061;-61
2022/10/31 02:16:31;;;;;;;206.38;125.68;;;;;;;22.08;76.52;98983.22;4873297;29;21695;-61
2022/10/31 02:19:29;;;;;;;199.85;126.72;;;;;;;22.16;76.07;98991.94;4869933;29;20056;-60
2022/10/31 02:22:29;;;;;;;189.73;123.32;;;;;;;22.19;76.40;99002.31;4871774;29;20044;-62
2022/10/31 02:25:56;;;;;;;199.70;124.80;;;;;;;22.25;74.93;99002.00;4870751;29;20048;-62
2022/10/31 02:29:06;;;;;;;209.77;125.60;;;;;;;22.40;75.27;99008.47;4869496;29;20064;-62
2022/10/31 02:32:13;;;;;;;204.27;127.43;;;;;;;22.43;75.06;99008.72;4886664;29;20055;-61
2022/10/31 02:35:05;;;;;;;202.88;125.50;;;;;;;22.47;74.81;99015.25;4870995;29;20108;-61
2022/10/31 02:38:03;;;;;;;203.70;124.78;;;;;;;22.62;74.24;99024.44;4870528;29;20063;-63
2022/10/31 02:41:39;;;;;;;205.07;126.53;;;;;;;22.71;73.39;99019.19;4880934;29;20056;-61
2022/10/31 02:44:38;;;;;;;208.57;123.88;;;;;;;22.85;73.37;99023.72;4869712;29;20056;-61
2022/10/31 02:47:34;;;;;;;206.32;124.32;;;;;;;22.83;70.80;99034.13;4872585;29;20080;-62
2022/10/31 02:50:34;;;;;;;191.23;122.75;;;;;;;22.95;71.87;99024.69;4870382;29;20064;-61
2022/10/31 02:53:17;;;;;;;198.40;122.50;;;;;;;22.85;69.69;99037.41;4875632;29;20056;-61
2022/10/31 02:56:12;;;;;;;208.90;124.25;;;;;;;23.02;69.72;99036.13;4873314;29;20053;-61
2022/10/31 02:59:11;;;;;;;204.15;123.35;;;;;;;23.05;68.64;99025.47;4871192;29;20061;-62
2022/10/31 03:02:04;;;;;;;205.68;128.32;;;;;;;23.25;70.86;99032.66;4870498;29;20048;-61
2022/10/31 03:05:03;;;;;;;218.02;128.85;;;;;;;23.26;67.61;99037.03;4870809;29;20144;-62
2022/10/31 03:08:14;;;;;;;201.85;129.27;;;;;;;23.51;68.62;99040.59;4874096;29;20053;-61
2022/10/31 03:11:00;;;;;;;224.00;133.10;;;;;;;23.22;65.89;99041.44;4871718;29;20056;-62
2022/10/31 03:14:01;;;;;;;219.10;132.20;;;;;;;23.36;68.03;99052.53;4873435;29;20052;-61
2022/10/31 03:16:56;;;;;;;214.32;132.52;;;;;;;23.71;66.78;99055.16;4854277;29;20049;-63
2022/10/31 03:19:55;;;;;;;236.00;139.18;;;;;;;23.77;66.15;99064.94;4872180;29;20045;-62
2022/10/31 03:22:42;;;;;;;249.70;137.02;;;;;;;23.80;65.87;99067.13;4870590;29;20798;-60
2022/10/31 03:25:33;;;;;;;227.88;135.65;;;;;;;23.91;66.47;99062.34;4870833;29;20387;-61
2022/10/31 03:28:16;;;;;;;;;;;;;;;24.12;64.94;99069.19;4871995;29;20045;-60
2022/10/31 03:31:10;;;;;;;234.95;134.07;;;;;;;24.27;67.17;99068.19;4869022;29;20003;-62
2022/10/31 03:33:56;;;;;;;236.02;142.90;;;;;;;24.13;64.41;99065.34;4870467;29;20105;-61
2022/10/31 03:36:48;;;;;;;239.98;143.13;;;;;;;24.40;64.26;99070.19;4874769;29;20048;-61
2022/10/31 03:39:31;;;;;;;239.80;143.60;;;;;;;24.45;63.16;99071.22;4878214;29;20053;-62
2022/10/31 03:42:28;;;;;;;234.68;143.57;;;;;;;24.61;64.40;99065.22;4874165;29;20053;-61
2022/10/31 03:45:23;;;;;;;247.30;143.18;;;;;;;24.66;62.93;99064.31;4873451;29;20136;-61
2022/10/31 03:48:13;;;;;;;245.85;144.85;;;;;;;24.73;60.89;99064.75;4874266;29;20068;-58
2022/10/31 03:51:23;;;;;;;243.10;146.40;;;;;;;24.95;61.39;99075.09;4874540;29;20067;-61
2022/10/31 03:54:44;;;;;;;238.35;147.57;;;;;;;25.22;65.51;99070.78;4878073;29;20077;-60
2022/10/31 03:57:47;;;;;;;240.43;146.02;;;;;;;25.56;63.02;99073.22;4875358;29;20076;-62
2022/10/31 04:00:40;;;;;;;247.43;146.65;;;;;;;25.35;58.17;99060.97;4874263;29;20057;-61
2022/10/31 04:03:28;;;;;;;247.55;146.82;;;;;;;25.84;61.05;99073.22;4885421;29;20051;-62
2022/10/31 04:06:23;;;;;;;246.20;148.95;;;;;;;26.07;59.18;99076.91;4873233;29;20061;-61
2022/10/31 04:09:09;;;;;;;245.80;150.10;;;;;;;26.28;55.76;99063.50;4873655;29;20129;-62
2022/10/31 04:12:03;;;;;;;237.90;148.07;;;;;;;26.54;56.37;99066.50;4874229;29;20143;-62
2022/10/31 04:15:07;;;;;;;231.63;144.13;;;;;;;26.94;53.95;99060.31;4872663;29;20140;-61
2022/10/31 04:18:01;;;;;;;242.30;145.88;;;;;;;26.99;56.62;99056.63;4907531;29;20083;-61
2022/10/31 04:20:44;;;;;;;236.43;147.05;;;;;;;27.25;56.94;99057.63;4858553;29;20052;-61
2022/10/31 04:23:34;;;;;;;232.93;148.75;;;;;;;27.65;54.70;99062.31;4878290;29;20065;-61
2022/10/31 04:26:31;;;;;;;234.35;147.73;;;;;;;27.85;57.04;99064.50;4875938;29;20060;-61
2022/10/31 04:29:20;;;;;;;225.73;147.27;;;;;;;27.86;54.52;99071.66;4871159;29;20081;-61
2022/10/31 04:32:08;;;;;;;233.88;149.73;;;;;;;28.19;53.23;99054.72;4889415;29;20057;-62
2022/10/31 04:35:05;;;;;;;238.63;150.27;;;;;;;28.21;52.90;99057.16;4872814;29;20128;-65
2022/10/31 04:37:40;;;;;;;249.43;147.45;;;;;;;28.29;56.43;99059.91;4875451;29;20067;-65
2022/10/31 04:40:30;;;;;;;259.17;152.68;;;;;;;28.31;53.86;99065.09;4873281;29;20045;-61
2022/10/31 04:43:15;;;;;;;235.48;151.13;;;;;;;28.51;56.38;99071.94;4872988;29;20044;-61
2022/10/31 04:46:06;;;;;;;231.13;144.52;;;;;;;29.16;54.42;99061.03;4885266;29;20069;-63
2022/10/31 04:48:48;;;;;;;235.00;143.70;;;;;;;28.76;52.52;99070.34;4888702;29;20057;-60
2022/10/31 04:51:37;;;;;;;225.05;142.48;;;;;;;28.95;52.59;99070.00;4870442;29;20517;-59
2022/10/31 04:54:26;;;;;;;244.85;144.88;;;;;;;29.16;51.08;99069.31;4871661;29;20132;-62
2022/10/31 04:57:08;;;;;;;229.38;141.20;;;;;;;29.18;48.89;99064.28;4876623;29;20579;-62
2022/10/31 04:59:57;;;;;;;230.30;143.60;;;;;;;29.34;47.04;99068.13;4889535;29;20548;-62
2022/10/31 05:02:47;;;;;;;226.13;139.75;;;;;;;28.87;49.45;99073.56;4856021;29;20620;-61
2022/10/31 05:05:37;;;;;;;219.43;142.45;;;;;;;29.18;49.61;99061.53;4865653;29;20053;-61
2022/10/31 05:08:20;;;;;;;225.80;145.90;;;;;;;29.09;48.57;99065.06;4869755;29;20048;-60
2022/10/31 05:11:12;;;;;;;225.07;144.05;;;;;;;29.70;53.05;99063.28;4869225;29;20045;-60
2022/10/31 05:13:55;;;;;;;216.35;140.63;;;;;;;29.82;48.88;99058.66;4871349;29;20073;-60
2022/10/31 05:17:04;;;;;;;215.88;140.32;;;;;;;29.84;47.68;99066.66;4842074;29;20041;-62
2022/10/31 05:20:13;;;;;;;235.02;142.43;;;;;;;29.72;47.46;99061.78;4847066;29;20045;-60
2022/10/31 05:23:34;;;;;;;218.65;140.13;;;;;;;30.17;49.20;99069.56;4858147;29;20547;-60
2022/10/31 05:26:16;;;;;;;225.88;141.20;;;;;;;30.22;50.09;99066.56;4886403;29;20053;-60
2022/10/31 05:29:06;;;;;;;227.82;140.68;;;;;;;29.88;48.53;99066.78;4876719;29;20049;-59
2022/10/31 05:31:48;;;;;;;227.98;143.23;;;;;;;30.03;47.86;99063.44;4875672;29;20059;-62
2022/10/31 05:35:03;;;;;;;215.13;140.85;;;;;;;30.23;48.41;99068.19;4829383;29;20477;-61
2022/10/31 05:38:09;;;;;;;217.65;139.52;;;;;;;30.54;50.39;99049.59;4843955;29;20198;-60
2022/10/31 05:41:02;;;;;;;200.02;136.45;;;;;;;30.79;47.61;99048.53;4850450;29;20050;-59
2022/10/31 05:43:46;;;;;;;218.35;137.23;;;;;;;30.95;45.47;99043.19;4853557;29;20117;-62
2022/10/31 05:46:37;;;;;;;213.30;137.68;;;;;;;30.32;47.47;99045.19;4853400;29;20141;-61
2022/10/31 05:49:28;;;;;;;209.15;135.77;;;;;;;30.56;49.74;99048.09;4853409;29;20465;-60
2022/10/31 05:52:36;;;;;;;222.45;135.25;;;;;;;30.70;46.43;99030.38;4855280;29;20118;-61
2022/10/31 05:55:32;;;;;;;213.93;137.95;;;;;;;30.34;45.12;99029.06;4850875;29;20061;-65
2022/10/31 05:58:26;;;;;;;200.73;130.27;;;;;;;30.55;45.62;99029.84;4833689;29;20065;-61
2022/10/31 06:01:15;;;;;;;210.27;132.57;;;;;;;30.69;44.89;99029.56;4851817;29;20065;-63
2022/10/31 06:03:57;;;;;;;205.80;133.00;;;;;;;30.59;44.34;99029.97;4852947;29;20052;-64
2022/10/31 06:06:46;;;;;;;204.10;129.27;;;;;;;30.76;45.36;99038.13;4844194;29;20094;-64
2022/10/31 06:09:35;;;;;;;209.40;133.70;;;;;;;30.54;45.24;99025.47;4852508;29;20061;-60
2022/10/31 06:12:27;;;;;;;199.82;128.95;;;;;;;30.22;43.86;99027.00;4852743;29;20328;-61
2022/10/31 06:15:37;;;;;;;205.57;131.40;;;;;;;30.53;43.08;99020.25;4850942;29;20820;-60
2022/10/31 06:18:19;;;;;;;195.90;129.60;;;;;;;30.84;44.13;99019.81;4853502;29;20053;-60
2022/10/31 06:21:10;;;;;;;209.48;130.45;;;;;;;31.05;43.91;99013.41;4853540;29;20057;-60
2022/10/31 06:23:58;;;;;;;208.85;135.38;;;;;;;30.76;44.78;99007.66;4869529;29;20164;-60
2022/10/31 06:27:02;;;;;;;207.77;128.85;;;;;;;31.41;44.22;99005.16;4858706;29;20525;-60
2022/10/31 06:29:51;;;;;;;198.02;129.32;;;;;;;31.35;47.64;99000.97;4842566;29;20456;-58
2022/10/31 06:32:42;;;;;;;193.45;129.40;;;;;;;31.29;44.16;98999.59;4860295;29;20658;-58
2022/10/31 06:35:31;;;;;;;202.52;127.82;;;;;;;31.11;44.81;98995.41;4867147;29;20053;-61
2022/10/31 06:38:26;;;;;;;192.90;124.65;;;;;;;31.47;44.93;98986.34;4888476;29;20084;-60
2022/10/31 06:41:06;;;;;;;194.60;126.53;;;;;;;31.54;45.87;98988.53;4891484;29;20053;-60
2022/10/31 06:43:56;;;;;;;203.00;128.98;;;;;;;31.32;47.00;98971.19;4872919;29;20059;-59
2022/10/31 06:46:58;;;;;;;198.18;126.07;;;;;;;31.08;44.88;98985.00;4873508;29;20501;-57
2022/10/31 06:50:10;;;;;;;194.35;125.78;;;;;;;31.35;44.61;98984.34;4876154;29;20449;-60
2022/10/31 06:53:05;;;;;;;188.57;125.40;;;;;;;31.26;46.22;98975.34;4886785;29;20057;-60
2022/10/31 06:55:56;;;;;;;194.55;123.28;;;;;;;31.21;42.22;98975.56;4870069;29;20060;-59
2022/10/31 06:58:43;;;;;;;189.45;124.72;;;;;;;31.27;41.65;98971.41;4887931;29;20053;-58
2022/10/31 07:01:52;;;;;;;197.65;128.68;;;;;;;31.20;42.01;98965.59;4873066;29;20136;-60
2022/10/31 07:04:34;;;;;;;179.80;122.82;;;;;;;31.41;45.62;98962.72;4855853;29;20061;-58
2022/10/31 07:07:25;;;;;;;185.90;124.57;;;;;;;30.96;42.07;98949.78;4872184;29;20109;-61
2022/10/31 07:10:14;;;;;;;180.70;121.72;;;;;;;31.29;44.77;98943.31;4871201;29;20060;-56
2022/10/31 07:13:07;;;;;;;185.07;120.55;;;;;;;31.59;43.63;98941.16;4878766;29;20112;-59
2022/10/31 07:16:02;;;;;;;178.60;116.97;;;;;;;31.39;42.50;98934.53;4871581;29;20147;-60
2022/10/31 07:18:44;;;;;;;172.52;118.90;;;;;;;31.47;45.14;98935.59;4856221;29;20141;-58
2022/10/31 07:21:35;;;;;;;192.82;125.80;;;;;;;31.14;41.73;98925.41;4871335;29;20063;-57
2022/10/31 07:24:31;;;;;;;202.05;125.80;;;;;;;31.48;44.88;98918.63;4878327;29;20129;-59
2022/10/31 07:27:29;;;;;;;181.20;121.65;;;;;;;31.30;43.38;98911.66;4875585;29;20097;-57
2022/10/31 07:30:24;;;;;;;179.07;116.88;;;;;;;31.10;41.27;98905.09;4886967;29;20041;-59
2022/10/31 07:33:06;;;;;;;183.30;114.45;;;;;;;30.99;40.63;98899.19;4872562;29;20124;-58
2022/10/31 07:36:13;;;;;;;175.23;113.90;;;;;;;31.30;40.47;98886.69;4869189;29;20068;-59
2022/10/31 07:39:08;;;;;;;159.38;103.55;;;;;;;31.28;42.17;98884.28;4878951;29;20065;-59
2022/10/31 07:41:50;;;;;;;137.65;90.55;;;;;;;31.40;40.01;98875.94;4886757;29;20097;-58
2022/10/31 07:44:40;;;;;;;124.57;81.15;;;;;;;31.29;39.21;98874.00;4865287;29;20144;-59
2022/10/31 07:47:45;;;;;;;123.15;81.75;;;;;;;31.38;42.50;98872.72;4872012;29;20080;-58
2022/10/31 07:50:54;;;;;;;129.32;84.50;;;;;;;31.03;40.38;98870.44;4833490;29;20540;-58
2022/10/31 07:54:19;;;;;;;108.95;70.32;;;;;;;31.22;39.10;98860.72;4816257;29;20373;-56
2022/10/31 07:57:01;;;;;;;132.50;82.38;;;;;;;30.82;39.49;98859.44;4861181;29;20053;-57
2022/10/31 07:59:50;;;;;;;147.23;96.25;;;;;;;30.82;41.12;98851.13;4854477;29;20059;-58
2022/10/31 08:02:48;;;;;;;159.02;103.93;;;;;;;31.18;40.25;98841.22;4871397;29;20045;-57
2022/10/31 08:06:06;;;;;;;178.13;102.13;;;;;;;31.08;37.26;98838.09;4772809;29;20393;-58
2022/10/31 08:09:04;;;;;;;143.07;96.93;;;;;;;31.25;39.40;98832.31;4868452;29;20053;-60
2022/10/31 08:11:48;;;;;;;160.50;102.88;;;;;;;31.05;38.63;98834.06;4851957;29;20061;-62
2022/10/31 08:14:39;;;;;;;160.93;99.18;;;;;;;30.75;40.56;98827.94;4857154;29;20069;-61
2022/10/31 08:17:29;;;;;;;155.48;95.57;;;;;;;31.10;38.11;98821.94;4876363;29;20061;-59
2022/10/31 08:20:12;;;;;;;138.65;87.63;;;;;;;30.70;37.27;98814.28;4873891;29;20732;-59
2022/10/31 08:23:05;;;;;;;143.10;89.78;;;;;;;31.09;39.82;98810.03;4874340;29;20045;-57
2022/10/31 08:25:49;;;;;;;145.05;94.45;;;;;;;30.95;38.43;98815.13;4874626;29;20141;-60
2022/10/31 08:28:38;;;;;;;149.80;90.40;;;;;;;31.05;40.10;98809.13;4856992;29;20073;-60
2022/10/31 08:31:21;;;;;;;138.03;90.77;;;;;;;31.02;39.57;98799.53;4875933;29;20048;-60
2022/10/31 08:34:39;;;;;;;138.13;84.35;;;;;;;31.14;39.74;98793.16;4876244;29;20056;-59
2022/10/31 08:37:54;;;;;;;128.68;83.70;;;;;;;31.24;40.10;98789.09;4854368;29;20051;-61
2022/10/31 08:40:45;;;;;;;135.85;80.82;;;;;;;31.08;37.65;98786.22;4872729;29;20512;-61
2022/10/31 08:43:26;;;;;;;127.13;81.18;;;;;;;31.30;36.16;98784.09;4883119;29;20140;-58
2022/10/31 08:46:16;;;;;;;123.97;78.63;;;;;;;31.21;37.67;98778.72;4873172;29;20045;-61
2022/10/31 08:49:05;;;;;;;121.85;74.72;;;;;;;31.10;37.61;98783.13;4873439;29;20057;-60
2022/10/31 08:51:57;;;;;;;123.20;79.63;;;;;;;31.00;37.21;98774.13;4886851;29;20057;-62
2022/10/31 08:54:44;;;;;;;140.55;79.68;;;;;;;30.87;38.23;98775.25;4874936;29;20060;-61
2022/10/31 08:58:09;;;;;;;122.97;81.07;;;;;;;31.06;36.87;98763.59;4873089;29;20711;-64
2022/10/31 09:00:59;;;;;;;129.07;79.97;;;;;;;31.16;37.28;98765.09;4872203;29;20049;-63
2022/10/31 09:03:50;;;;;;;128.10;79.68;;;;;;;31.11;35.73;98762.53;4872360;29;20057;-62
2022/10/31 09:06:33;;;;;;;130.00;77.40;;;;;;;31.20;37.45;98760.44;4873090;29;20081;-62
2022/10/31 09:09:35;;;;;;;125.43;74.88;;;;;;;30.72;36.87;98753.81;4875201;29;20059;-63
2022/10/31 09:12:26;;;;;;;123.10;78.63;;;;;;;30.83;36.42;98760.50;4872989;29;20635;-62
2022/10/31 09:15:26;;;;;;;126.22;76.22;;;;;;;31.07;37.66;98748.59;4872152;29;20103;-62
2022/10/31 09:18:28;;;;;;;130.93;77.40;;;;;;;30.94;40.27;98742.25;4868983;29;20557;-63
2022/10/31 09:21:10;;;;;;;138.52;79.57;;;;;;;30.89;37.72;98739.69;4875359;29;20433;-61
2022/10/31 09:24:06;;;;;;;122.00;77.75;;;;;;;31.10;38.26;98738.78;4872158;29;20524;-62
2022/10/31 09:26:42;;;;;;;122.22;78.25;;;;;;;31.07;37.86;98739.47;4874362;29;20057;-62
2022/10/31 09:29:35;;;;;;;130.13;81.13;;;;;;;31.01;37.92;98731.41;4873811;29;20057;-61
2022/10/31 09:32:20;;;;;;;131.85;84.20;;;;;;;31.09;38.63;98726.06;4875730;29;20068;-61
2022/10/31 09:35:16;;;;;;;133.55;83.45;;;;;;;31.05;39.67;98727.91;4855164;29;20053;-61
2022/10/31 09:37:59;;;;;;;159.40;85.15;;;;;;;30.88;41.22;98729.78;4868772;29;20109;-61
2022/10/31 09:41:27;;;;;;;136.52;86.38;;;;;;;30.87;38.96;98721.81;4871422;29;20481;-62
2022/10/31 09:44:18;;;;;;;145.20;89.43;;;;;;;30.91;39.25;98712.47;4854465;29;20069;-62
2022/10/31 09:47:22;;;;;;;132.15;87.53;;;;;;;30.91;39.84;98718.00;4853373;29;20677;-61
2022/10/31 09:50:49;;;;;;;156.77;93.78;;;;;;;30.80;38.95;98717.69;4825835;29;21540;-61
2022/10/31 09:54:07;;;;;;;148.90;88.13;;;;;;;30.90;39.59;98713.66;4851538;29;20084;-63
2022/10/31 09:56:57;;;;;;;146.27;87.00;;;;;;;30.98;38.10;98709.13;4869697;29;20497;-65
2022/10/31 09:59:42;;;;;;;135.25;85.47;;;;;;;31.02;38.75;98710.03;4867936;29;20057;-64
2022/10/31 10:02:50;;;;;;;146.27;87.63;;;;;;;30.82;41.57;98711.75;4875489;29;20048;-62
2022/10/31 10:05:51;;;;;;;132.07;84.00;;;;;;;30.57;38.48;98703.50;4857320;29;20653;-61
2022/10/31 10:09:03;;;;;;;138.20;80.47;;;;;;;30.56;41.26;98699.13;4854265;29;20058;-64
2022/10/31 10:12:46;;;;;;;134.65;78.45;;;;;;;30.48;40.99;98696.44;4841076;29;20068;-67
2022/10/31 10:15:43;;;;;;;132.35;78.80;;;;;;;30.31;41.20;98697.50;4854273;29;20069;-66
2022/10/31 10:18:59;;;;;;;140.40;80.60;;;;;;;30.39;42.75;98691.84;4852717;29;20411;-67
2022/10/31 10:22:08;;;;;;;125.40;76.78;;;;;;;30.36;42.47;98686.19;4856258;29;20145;-68
2022/10/31 10:25:18;;;;;;;127.55;75.07;;;;;;;30.31;43.21;98686.41;4852939;29;20041;-70
2022/10/31 10:28:08;;;;;;;119.55;76.20;;;;;;;30.17;44.53;98682.03;4855087;29;20204;-65
2022/10/31 10:31:00;;;;;;;126.28;73.82;;;;;;;30.11;44.52;98680.63;4855043;29;20064;-66
2022/10/31 10:33:58;;;;;;;119.28;74.30;;;;;;;30.10;44.46;98687.31;4863132;29;20139;-62
2022/10/31 10:36:38;;;;;;;122.18;74.40;;;;;;;29.93;45.34;98684.75;4872961;29;20053;-67
2022/10/31 10:39:56;;;;;;;120.13;73.07;;;;;;;29.93;44.71;98682.81;4871696;29;20144;-63
2022/10/31 10:48:49;;;;;;;109.18;68.15;;;;;;;29.70;46.92;98671.31;4882102;29;20618;-63
2022/10/31 10:51:47;;;;;;;105.88;66.85;;;;;;;29.72;46.95;98670.97;4873267;29;20060;-63
2022/10/31 10:54:58;;;;;;;109.03;71.10;;;;;;;29.65;46.65;98672.31;4873517;29;20052;-62
2022/10/31 10:58:10;;;;;;;108.97;68.82;;;;;;;29.75;46.01;98675.84;4871665;29;20060;-64
2022/10/31 11:00:47;;;;;;;114.03;73.13;;;;;;;29.58;47.68;98669.34;4873289;29;20044;-66
2022/10/31 11:03:36;;;;;;;128.10;78.70;;;;;;;29.47;48.14;98671.72;4873434;29;20117;-63
2022/10/31 11:06:29;;;;;;;138.13;82.88;;;;;;;29.50;47.69;98669.41;4873310;29;20053;-61
2022/10/31 11:09:11;;;;;;;148.45;89.18;;;;;;;29.29;48.40;98670.25;4873214;29;20053;-63
2022/10/31 11:12:01;;;;;;;144.52;94.35;;;;;;;29.27;47.47;98669.78;4879023;29;20172;-66
2022/10/31 11:14:54;;;;;;;157.82;96.03;;;;;;;29.30;48.89;98666.34;4877347;29;20056;-63
2022/10/31 11:17:47;;;;;;;161.55;96.72;;;;;;;29.09;50.10;98667.16;4872575;29;20053;-61
2022/10/31 11:20:43;;;;;;;150.88;98.60;;;;;;;28.96;50.54;98672.97;4874611;29;20400;-62
2022/10/31 11:23:20;;;;;;;162.70;100.50;;;;;;;28.96;50.80;98671.00;4891558;29;20139;-64
2022/10/31 11:26:28;;;;;;;164.50;101.10;;;;;;;28.84;52.57;98670.94;4882846;29;20056;-63
2022/10/31 11:29:08;;;;;;;163.20;100.93;;;;;;;28.75;51.97;98678.47;4871163;29;20813;-66
2022/10/31 11:32:00;;;;;;;172.63;102.80;;;;;;;28.65;52.30;98677.72;4873370;29;20143;-64
2022/10/31 11:34:50;;;;;;;176.65;102.88;;;;;;;28.54;52.59;98682.00;4872001;29;20052;-64
2022/10/31 11:37:44;;;;;;;173.63;102.22;;;;;;;28.44;53.07;98691.47;4876432;29;20097;-63
2022/10/31 11:40:34;;;;;;;169.32;104.28;;;;;;;28.33;54.46;98689.41;4873035;29;20049;-67
2022/10/31 11:43:23;;;;;;;166.02;106.22;;;;;;;28.21;55.21;98682.66;4872768;29;20140;-63
2022/10/31 11:46:25;;;;;;;188.52;107.18;;;;;;;28.12;54.39;98692.91;4874581;29;20052;-66
2022/10/31 11:49:16;;;;;;;169.13;101.53;;;;;;;28.06;54.31;98697.00;4872568;29;20156;-65
2022/10/31 11:52:09;;;;;;;167.55;102.55;;;;;;;28.00;53.97;98701.09;4883946;29;20124;-64
2022/10/31 11:55:14;;;;;;;169.05;107.00;;;;;;;27.90;55.33;98705.81;4880859;29;20061;-65
2022/10/31 11:58:04;;;;;;;162.70;102.65;;;;;;;27.69;56.11;98710.41;4875251;29;20112;-66
2022/10/31 12:00:51;;;;;;;174.77;103.63;;;;;;;27.68;55.68;98714.28;4878112;29;20093;-67
2022/10/31 12:04:09;;;;;;;182.75;106.63;;;;;;;27.64;56.04;98708.59;4877730;29;20045;-66
2022/10/31 12:06:53;;;;;;;184.85;109.25;;;;;;;27.56;56.51;98714.16;4871368;29;20540;-67
2022/10/31 12:09:44;;;;;;;168.32;105.15;;;;;;;27.58;56.18;98725.66;4875445;29;20112;-66
2022/10/31 12:12:43;;;;;;;176.95;106.25;;;;;;;27.49;56.90;98717.38;4875823;29;20072;-67
2022/10/31 12:15:36;;;;;;;176.32;107.43;;;;;;;27.47;56.57;98725.97;4880371;29;20701;-66
2022/10/31 12:19:03;;;;;;;180.05;108.95;;;;;;;27.56;56.19;98727.94;4875535;29;20592;-67
2022/10/31 12:22:08;;;;;;;179.38;107.25;;;;;;;27.46;56.35;98727.13;4883990;29;20041;-66
2022/10/31 12:25:25;;;;;;;182.95;106.45;;;;;;;27.39;56.28;98726.81;4892406;29;20064;-65
2022/10/31 12:28:15;;;;;;;184.38;109.80;;;;;;;27.38;56.69;98736.22;4891094;29;20060;-62
2022/10/31 12:31:23;;;;;;;190.73;112.70;;;;;;;27.29;56.76;98730.69;4875723;29;20161;-64
2022/10/31 12:34:09;;;;;;;188.13;112.43;;;;;;;27.23;57.01;98737.47;4874996;29;20185;-63
2022/10/31 12:37:24;;;;;;;194.05;111.20;;;;;;;27.25;56.72;98728.94;4876693;29;20060;-63
2022/10/31 12:40:18;;;;;;;185.00;110.68;;;;;;;27.18;58.16;98739.59;4875597;29;20053;-62
2022/10/31 12:43:41;;;;;;;172.65;107.88;;;;;;;27.18;57.74;98739.59;4874369;29;20112;-60
2022/10/31 12:46:45;;;;;;;182.25;108.95;;;;;;;27.08;58.13;98737.97;4883477;29;20048;-63
2022/10/31 12:49:51;;;;;;;195.27;109.28;;;;;;;27.04;58.12;98735.03;4894246;29;20045;-64
2022/10/31 12:52:54;;;;;;;179.13;108.80;;;;;;;27.02;58.42;98731.81;4893844;29;20049;-63
2022/10/31 12:55:58;;;;;;;182.13;110.20;;;;;;;26.98;58.70;98736.34;4885361;29;20049;-63
2022/10/31 12:58:47;;;;;;;195.35;110.82;;;;;;;26.93;58.38;98745.53;4875233;29;20065;-63
2022/10/31 13:02:03;;;;;;;190.30;112.82;;;;;;;26.89;59.14;98743.78;4881736;29;20089;-65
2022/10/31 13:05:11;;;;;;;186.15;111.97;;;;;;;26.97;58.70;98753.97;4875592;29;20112;-63
2022/10/31 13:08:03;;;;;;;181.60;111.72;;;;;;;26.91;58.90;98755.28;4874278;29;20136;-64
2022/10/31 13:11:01;;;;;;;197.63;115.05;;;;;;;26.87;59.38;98762.56;4882343;29;20457;-64
2022/10/31 13:14:07;;;;;;;188.82;112.53;;;;;;;26.86;59.38;98766.44;4873934;29;20168;-63